Time;durP1;ratioP1;P1;durP2;ratioP2;P2;SDS_P1;SDS_P2;PMS_P1;PMS_P2;Temp;Humidity;BMP_temperature;BMP_pressure;BME280_temperature;BME280_humidity;BME280_pressure;Samples;Min_cycle;Max_cycle;Signal;HPM_P1;HPM_P2
2021/06/02 00:10:20;;;;;;;;;;;;;;;;;;5073070;27;20041;-40
2021/06/02 00:13:55;;;;;;;0.15;0.15;;;;;;;22.82;43.95;101074.50;5045246;27;20420;-42
2021/06/02 00:16:23;;;;;;;;;;;;;;;22.33;44.70;101071.47;5049907;28;20058;-41
2021/06/02 00:18:49;;;;;;;0.10;0.10;;;;;;;22.20;45.17;101062.94;5065643;28;19912;-42
2021/06/02 00:21:15;;;;;;;0.00;0.00;;;;;;;22.19;45.24;101055.88;5080436;28;20511;-41
2021/06/02 00:23:41;;;;;;;2.50;0.77;;;;;;;22.30;45.29;101073.34;5066169;28;20385;-40
2021/06/02 00:26:07;;;;;;;0.03;0.03;;;;;;;22.31;45.19;101075.06;5085816;28;20462;-40
2021/06/02 00:28:33;;;;;;;0.10;0.10;;;;;;;22.37;45.23;101090.91;5098501;28;20296;-39
2021/06/02 00:31:00;;;;;;;1.00;0.43;;;;;;;22.41;45.25;101088.09;5080404;28;20412;-40
2021/06/02 00:33:26;;;;;;;3.10;1.10;;;;;;;22.49;45.10;101083.41;5075997;28;20016;-42
2021/06/02 00:35:52;;;;;;;17.97;0.53;;;;;;;22.36;45.60;101082.03;5080844;28;20268;-42
2021/06/02 00:38:19;;;;;;;0.32;0.32;;;;;;;22.44;45.46;101084.47;5079962;28;20024;-41
2021/06/02 00:40:47;;;;;;;0.20;0.20;;;;;;;22.48;45.39;101081.69;5080609;28;20032;-41
2021/06/02 00:43:15;;;;;;;10.63;1.55;;;;;;;22.49;45.30;101078.09;5082964;28;20024;-39
2021/06/02 00:45:45;;;;;;;0.52;0.30;;;;;;;22.42;45.40;101084.53;5079236;28;20123;-39
2021/06/02 00:48:18;;;;;;;0.38;0.38;;;;;;;22.46;45.38;101074.69;5081781;28;20028;-42
2021/06/02 00:50:45;;;;;;;7.47;1.10;;;;;;;22.38;45.43;101071.34;5078686;28;20032;-42
2021/06/02 00:53:12;;;;;;;2.28;1.05;;;;;;;22.38;45.69;101066.03;5086394;28;20102;-40
2021/06/02 00:55:38;;;;;;;5.43;1.15;;;;;;;22.41;45.40;101058.84;5080452;28;20020;-41
2021/06/02 00:58:04;;;;;;;1.30;0.57;;;;;;;22.55;45.20;101062.88;5079641;28;20040;-41
2021/06/02 01:00:30;;;;;;;0.60;0.30;;;;;;;22.31;45.75;101053.78;5079580;28;20029;-41
2021/06/02 01:02:57;;;;;;;0.30;0.30;;;;;;;22.45;45.15;101062.25;5074010;28;20028;-42
2021/06/02 01:05:24;;;;;;;0.95;0.35;;;;;;;22.30;45.87;101057.38;5080535;28;20277;-42
2021/06/02 01:07:50;;;;;;;;;;;;;;;22.28;45.82;101057.41;5088938;28;20020;-41
2021/06/02 01:10:18;;;;;;;0.00;0.00;;;;;;;22.37;45.63;101056.28;5077215;28;19920;-40
2021/06/02 01:12:45;;;;;;;0.55;0.28;;;;;;;22.32;45.70;101064.41;5080473;28;20043;-41
2021/06/02 01:15:11;;;;;;;0.00;0.00;;;;;;;22.35;45.69;101064.31;5080425;28;20481;-40
2021/06/02 01:17:37;;;;;;;3.08;1.25;;;;;;;22.54;45.30;101064.66;5089591;28;20339;-41
2021/06/02 01:20:05;;;;;;;5.78;1.35;;;;;;;22.48;45.52;101054.19;5072633;28;20790;-42
2021/06/02 01:22:34;;;;;;;0.10;0.05;;;;;;;22.23;46.13;101056.69;5079591;28;20024;-41
2021/06/02 01:25:12;;;;;;;0.80;0.35;;;;;;;22.11;46.17;101046.31;5063368;28;20103;-41
2021/06/02 01:27:38;;;;;;;0.22;0.22;;;;;;;22.20;46.22;101044.31;5069642;28;20029;-39
2021/06/02 01:30:12;;;;;;;0.22;0.20;;;;;;;22.19;46.28;101044.38;5067167;28;20040;-42
2021/06/02 01:32:57;;;;;;;0.00;0.00;;;;;;;22.22;46.04;101055.81;5074029;28;20462;-42
2021/06/02 01:35:41;;;;;;;0.95;0.10;;;;;;;22.18;46.16;101051.47;5074579;28;20032;-39
2021/06/02 01:38:25;;;;;;;0.47;0.43;;;;;;;22.15;46.27;101042.69;5059811;28;20024;-41
2021/06/02 01:40:58;;;;;;;0.00;0.00;;;;;;;22.11;46.28;101049.88;5065856;28;20103;-42
2021/06/02 01:43:55;;;;;;;0.00;0.00;;;;;;;22.14;46.18;101055.13;5070580;28;20409;-42
2021/06/02 01:46:45;;;;;;;4.65;0.68;;;;;;;22.09;46.41;101049.03;5067241;28;20107;-41
2021/06/02 01:49:20;;;;;;;1.88;0.65;;;;;;;22.04;46.60;101050.06;5071568;28;20033;-41
2021/06/02 01:52:05;;;;;;;0.30;0.30;;;;;;;22.10;46.64;101041.91;5067670;28;20037;-41
2021/06/02 01:54:40;;;;;;;0.75;0.60;;;;;;;22.04;46.67;101045.63;5067419;28;20112;-39
2021/06/02 01:57:09;;;;;;;0.75;0.70;;;;;;;21.97;46.68;101044.91;5066254;28;20459;-42
2021/06/02 01:59:56;;;;;;;2.17;1.13;;;;;;;21.96;46.62;101043.16;5065663;28;20127;-42
2021/06/02 02:03:00;;;;;;;1.20;0.55;;;;;;;21.94;46.55;101046.78;5068421;28;20058;-41
2021/06/02 02:05:58;;;;;;;1.10;0.55;;;;;;;22.01;46.46;101051.00;5020537;28;20101;-41
2021/06/02 02:08:43;;;;;;;0.90;0.73;;;;;;;21.97;46.75;101052.00;5066410;28;20016;-42
2021/06/02 02:11:27;;;;;;;2.17;0.32;;;;;;;21.93;46.79;101056.56;5066714;28;20027;-42
2021/06/02 02:14:31;;;;;;;0.17;0.17;;;;;;;21.94;46.88;101052.09;5061562;28;20604;-39
2021/06/02 02:17:16;;;;;;;5.90;0.60;;;;;;;21.96;46.62;101060.91;5066232;28;20047;-42
2021/06/02 02:20:04;;;;;;;0.85;0.43;;;;;;;21.87;46.86;101062.00;5063620;28;20032;-41
2021/06/02 02:22:42;;;;;;;0.20;0.20;;;;;;;21.90;46.56;101059.28;5061014;28;20021;-38
2021/06/02 02:25:48;;;;;;;0.85;0.63;;;;;;;21.86;46.68;101062.06;5063963;28;20024;-41
2021/06/02 02:28:23;;;;;;;0.73;0.70;;;;;;;21.88;46.93;101057.56;5054761;28;20447;-40
2021/06/02 02:31:20;;;;;;;0.08;0.00;;;;;;;21.83;46.67;101052.38;5063361;28;20051;-41
2021/06/02 02:34:04;;;;;;;0.43;0.43;;;;;;;21.88;46.84;101053.13;5067841;28;20362;-42
2021/06/02 02:36:44;;;;;;;0.17;0.17;;;;;;;21.83;46.69;101052.38;5084785;28;20032;-42
2021/06/02 02:39:32;;;;;;;0.25;0.25;;;;;;;21.76;46.97;101052.59;5065769;28;20024;-42
2021/06/02 02:42:17;;;;;;;0.25;0.25;;;;;;;21.78;46.89;101054.28;5067225;28;20021;-42
2021/06/02 02:45:12;;;;;;;0.25;0.25;;;;;;;21.84;46.92;101043.50;5068215;28;20176;-41
2021/06/02 02:47:55;;;;;;;1.20;1.10;;;;;;;21.78;47.08;101040.97;5058462;28;20037;-40
2021/06/02 02:50:35;;;;;;;0.17;0.17;;;;;;;21.71;47.33;101048.25;5051528;28;20032;-39
2021/06/02 02:53:23;;;;;;;0.10;0.10;;;;;;;21.72;46.84;101043.81;5073916;28;20025;-40
2021/06/02 02:56:01;;;;;;;0.63;0.50;;;;;;;21.63;47.22;101031.59;5063192;28;20340;-40
2021/06/02 02:58:36;;;;;;;2.35;0.90;;;;;;;21.68;47.18;101050.97;5071678;28;20020;-40
2021/06/02 03:01:05;;;;;;;0.10;0.10;;;;;;;21.69;46.96;101050.06;5056484;28;20029;-41
2021/06/02 03:03:34;;;;;;;0.00;0.00;;;;;;;21.72;47.11;101051.78;5069812;28;20110;-42
2021/06/02 03:06:10;;;;;;;0.00;0.00;;;;;;;21.69;47.02;101063.34;5063240;28;20066;-41
2021/06/02 03:08:53;;;;;;;0.63;0.30;;;;;;;21.63;47.16;101068.81;5062642;28;20029;-41
2021/06/02 03:11:42;;;;;;;0.00;0.00;;;;;;;21.63;47.10;101078.59;5066371;28;20028;-39
2021/06/02 03:14:20;;;;;;;3.95;0.98;;;;;;;21.66;47.07;101086.50;5049793;28;20043;-41
2021/06/02 03:16:51;;;;;;;;;;;;;;;21.58;47.14;101094.66;5067974;28;20020;-42
2021/06/02 03:19:19;;;;;;;1.23;0.47;;;;;;;21.59;47.30;101088.41;5071670;28;19999;-41
2021/06/02 03:21:59;;;;;;;0.10;0.08;;;;;;;21.59;47.03;101090.22;5071537;28;20032;-42
2021/06/02 03:24:40;;;;;;;0.10;0.10;;;;;;;21.58;47.03;101085.81;5073011;28;20035;-40
2021/06/02 03:27:50;;;;;;;0.10;0.10;;;;;;;21.55;46.93;101085.88;5073831;28;20043;-42
2021/06/02 03:30:36;;;;;;;0.45;0.10;;;;;;;21.54;47.22;101081.47;5070606;28;20028;-41
2021/06/02 03:33:40;;;;;;;0.60;0.57;;;;;;;21.58;47.02;101080.50;5068751;28;20039;-40
2021/06/02 03:36:37;;;;;;;2.17;0.57;;;;;;;21.51;47.33;101078.88;5051262;28;20049;-42
2021/06/02 03:39:07;;;;;;;0.57;0.13;;;;;;;21.65;46.99;101074.13;5061961;28;20024;-39
2021/06/02 03:41:44;;;;;;;0.50;0.50;;;;;;;21.66;46.84;101083.84;5050863;28;20036;-41
2021/06/02 03:44:31;;;;;;;0.75;0.43;;;;;;;21.57;47.06;101086.72;5080726;28;20092;-41
2021/06/02 03:47:20;;;;;;;0.10;0.10;;;;;;;21.51;46.93;101087.75;5070538;28;20036;-41
2021/06/02 03:50:07;;;;;;;0.32;0.13;;;;;;;21.63;46.75;101081.25;5064792;28;20048;-42
2021/06/02 03:52:48;;;;;;;4.13;0.50;;;;;;;21.50;46.91;101083.31;5072485;28;20563;-42
2021/06/02 03:55:14;;;;;;;2.40;0.43;;;;;;;21.43;47.39;101085.25;5069931;28;20477;-40
2021/06/02 03:57:48;;;;;;;4.90;0.32;;;;;;;21.55;46.88;101089.41;5056042;28;20036;-41
2021/06/02 04:00:19;;;;;;;2.85;0.40;;;;;;;21.44;47.04;101083.47;5070842;28;20024;-41
2021/06/02 04:02:56;;;;;;;0.13;0.13;;;;;;;21.51;47.01;101094.81;5068752;28;20135;-40
2021/06/02 04:05:47;;;;;;;0.20;0.20;;;;;;;21.40;47.03;101089.78;5072164;28;20078;-41
2021/06/02 04:08:30;;;;;;;9.07;0.47;;;;;;;21.44;47.15;101096.75;5069184;28;20442;-39
2021/06/02 04:11:18;;;;;;;0.45;0.32;;;;;;;21.37;47.01;101095.19;5070053;28;20103;-41
2021/06/02 04:13:58;;;;;;;0.03;0.03;;;;;;;21.38;46.82;101096.91;5064427;28;20087;-40
2021/06/02 04:16:35;;;;;;;0.08;0.08;;;;;;;21.35;46.95;101097.84;5072418;28;20036;-40
2021/06/02 04:19:02;;;;;;;0.23;0.23;;;;;;;21.30;47.27;101097.06;5068016;28;20025;-40
2021/06/02 04:21:28;;;;;;;0.40;0.40;;;;;;;21.33;47.07;101090.84;5069913;28;20024;-41
2021/06/02 04:23:54;;;;;;;0.20;0.03;;;;;;;21.30;47.24;101090.88;5071730;28;20028;-40
2021/06/02 04:26:21;;;;;;;6.05;1.10;;;;;;;21.35;47.00;101089.00;5070584;28;20362;-40
2021/06/02 04:28:47;;;;;;;1.45;0.55;;;;;;;21.33;47.03;101085.53;5065074;28;20025;-42
2021/06/02 04:31:14;;;;;;;0.00;0.00;;;;;;;21.35;47.08;101095.19;5070317;28;20154;-42
2021/06/02 04:33:41;;;;;;;0.10;0.10;;;;;;;21.32;46.99;101097.06;5067761;28;20029;-42
2021/06/02 04:36:09;;;;;;;0.15;0.15;;;;;;;21.27;47.10;101098.91;5071548;28;20056;-42
2021/06/02 04:38:36;;;;;;;3.50;0.57;;;;;;;21.26;47.20;101094.50;5070920;28;20025;-42
2021/06/02 04:41:03;;;;;;;0.73;0.20;;;;;;;21.27;47.00;101096.25;5067452;28;20023;-41
2021/06/02 04:43:34;;;;;;;0.93;0.85;;;;;;;21.26;47.07;101102.47;5068053;28;20025;-41
2021/06/02 04:46:03;;;;;;;0.05;0.05;;;;;;;21.30;46.90;101098.84;5068612;28;20028;-40
2021/06/02 04:48:29;;;;;;;0.08;0.08;;;;;;;21.17;47.16;101108.84;5073493;28;20462;-41
2021/06/02 04:51:29;;;;;;;0.65;0.65;;;;;;;21.16;47.15;101107.13;5063845;28;20458;-40
2021/06/02 04:54:05;;;;;;;0.00;0.00;;;;;;;21.21;46.91;101121.16;5045903;28;20037;-41
2021/06/02 04:56:58;;;;;;;0.45;0.20;;;;;;;21.13;47.15;101118.69;5068805;28;20038;-42
2021/06/02 04:59:42;;;;;;;0.28;0.20;;;;;;;21.23;46.84;101122.91;5071415;28;20028;-40
2021/06/02 05:02:11;;;;;;;0.57;0.10;;;;;;;21.26;46.75;101115.75;5072513;28;20073;-39
2021/06/02 05:04:52;;;;;;;0.00;0.00;;;;;;;21.16;47.01;101134.56;5068473;28;20082;-40
2021/06/02 05:08:13;;;;;;;0.98;0.10;;;;;;;21.12;47.08;101135.53;5074425;28;20025;-40
2021/06/02 05:11:08;;;;;;;0.28;0.10;;;;;;;21.15;46.89;101130.16;5019889;28;20064;-38
2021/06/02 05:14:12;;;;;;;0.52;0.20;;;;;;;21.10;46.98;101145.31;5075533;28;20034;-38
2021/06/02 05:16:47;;;;;;;1.73;0.25;;;;;;;21.17;46.88;101135.41;5057018;28;20041;-40
2021/06/02 05:20:18;;;;;;;7.85;0.30;;;;;;;21.08;46.97;101140.94;5074934;28;20789;-38
2021/06/02 05:23:06;;;;;;;0.10;0.10;;;;;;;21.01;47.20;101139.31;5045154;28;20041;-39
2021/06/02 05:26:09;;;;;;;3.83;0.20;;;;;;;21.08;46.91;101139.19;5073439;28;20017;-38
2021/06/02 05:28:56;;;;;;;0.00;0.00;;;;;;;21.05;47.10;101143.66;5076605;28;20024;-40
2021/06/02 05:31:33;;;;;;;0.13;0.13;;;;;;;21.04;47.03;101145.47;5073979;28;20420;-39
2021/06/02 05:34:14;;;;;;;0.05;0.05;;;;;;;21.02;46.99;101146.38;5071602;28;20049;-39
2021/06/02 05:37:03;;;;;;;0.70;0.65;;;;;;;21.06;46.98;101145.41;5068957;28;20433;-39
2021/06/02 05:40:15;;;;;;;0.00;0.00;;;;;;;20.95;47.04;101150.97;5071491;28;20038;-40
2021/06/02 05:43:03;;;;;;;0.32;0.22;;;;;;;21.00;47.02;101146.41;5064627;28;20036;-40
2021/06/02 05:45:47;;;;;;;0.20;0.20;;;;;;;20.93;47.16;101148.31;5072085;28;20020;-40
2021/06/02 05:48:35;;;;;;;0.10;0.10;;;;;;;20.98;46.93;101148.22;5067859;28;20024;-39
2021/06/02 05:51:34;;;;;;;0.52;0.20;;;;;;;20.94;47.06;101147.44;5066683;28;20408;-40
2021/06/02 05:54:56;;;;;;;0.63;0.47;;;;;;;20.98;47.15;101156.19;5070471;28;20044;-39
2021/06/02 05:57:59;;;;;;;1.17;0.10;;;;;;;20.94;46.89;101143.91;5028783;28;20036;-39
2021/06/02 06:00:56;;;;;;;0.20;0.20;;;;;;;20.87;47.01;101142.25;5072912;28;20020;-40
2021/06/02 06:04:01;;;;;;;0.15;0.10;;;;;;;20.79;47.01;101128.25;5069371;28;20028;-39
2021/06/02 06:06:43;;;;;;;2.42;0.47;;;;;;;20.97;46.92;101134.06;5071956;28;20040;-38
2021/06/02 06:09:52;;;;;;;1.17;0.88;;;;;;;20.88;46.98;101134.25;5068976;28;20027;-40
2021/06/02 06:12:46;;;;;;;0.75;0.28;;;;;;;20.85;46.96;101134.34;5069908;28;20063;-39
2021/06/02 06:15:27;;;;;;;0.00;0.00;;;;;;;20.88;46.97;101139.56;5059704;28;20032;-40
2021/06/02 06:18:34;;;;;;;0.08;0.08;;;;;;;20.86;46.84;101152.00;5072381;28;20028;-38
2021/06/02 06:21:03;;;;;;;0.00;0.00;;;;;;;20.95;46.80;101150.97;5043630;28;20044;-40
2021/06/02 06:23:41;;;;;;;0.20;0.20;;;;;;;20.89;46.90;101159.06;5066295;28;20925;-40
2021/06/02 06:26:26;;;;;;;0.10;0.10;;;;;;;20.78;47.00;101151.28;5061923;28;20505;-40
2021/06/02 06:29:06;;;;;;;0.30;0.30;;;;;;;20.78;47.12;101151.28;5064425;28;20039;-40
2021/06/02 06:31:34;;;;;;;0.00;0.00;;;;;;;20.83;46.94;101144.09;5063338;28;20016;-40
2021/06/02 06:34:13;;;;;;;0.30;0.22;;;;;;;20.80;46.92;101157.47;5061027;28;20035;-39
2021/06/02 06:36:39;;;;;;;0.08;0.08;;;;;;;20.84;46.78;101150.28;5059030;28;20115;-40
2021/06/02 06:39:15;;;;;;;0.43;0.20;;;;;;;20.79;46.87;101150.38;5070048;28;20060;-40
2021/06/02 06:41:41;;;;;;;0.60;0.20;;;;;;;20.83;46.90;101157.38;5072491;28;20040;-40
2021/06/02 06:44:08;;;;;;;0.10;0.10;;;;;;;20.81;46.93;101156.53;5071832;28;20439;-39
2021/06/02 06:46:34;;;;;;;0.47;0.47;;;;;;;20.85;46.60;101157.38;5070600;28;20084;-38
2021/06/02 06:49:00;;;;;;;0.00;0.00;;;;;;;20.73;46.87;101155.81;5067801;28;20116;-40
2021/06/02 06:51:27;;;;;;;0.00;0.00;;;;;;;20.79;46.66;101157.47;5057713;28;20046;-40
2021/06/02 06:53:53;;;;;;;;;;;;;;;20.70;46.86;101155.91;5071139;28;20418;-39
2021/06/02 06:56:19;;;;;;;0.00;0.00;;;;;;;20.75;46.73;101153.13;5071377;28;20383;-40
2021/06/02 06:58:46;;;;;;;0.17;0.17;;;;;;;20.69;46.86;101162.09;5072970;28;20036;-40
2021/06/02 07:01:15;;;;;;;5.40;0.43;;;;;;;20.64;46.99;101161.31;5070301;28;20037;-39
2021/06/02 07:03:45;;;;;;;0.13;0.13;;;;;;;20.73;46.62;101158.47;5068844;28;20043;-40
2021/06/02 07:06:14;;;;;;;0.10;0.10;;;;;;;20.70;46.62;101156.75;5070097;28;20029;-39
2021/06/02 07:08:44;;;;;;;0.52;0.40;;;;;;;20.69;46.76;101152.34;5070919;28;20426;-38
2021/06/02 07:11:13;;;;;;;0.00;0.00;;;;;;;20.72;46.57;101154.06;5069905;28;20520;-38
2021/06/02 07:13:39;;;;;;;0.00;0.00;;;;;;;20.67;46.57;101159.47;5072570;28;20056;-40
2021/06/02 07:16:06;;;;;;;0.13;0.13;;;;;;;20.71;46.59;101153.19;5068340;28;20065;-38
2021/06/02 07:18:32;;;;;;;0.00;0.00;;;;;;;20.58;46.54;101134.88;5072107;28;20024;-40
2021/06/02 07:20:58;;;;;;;0.03;0.03;;;;;;;20.60;46.69;101149.84;5056624;28;20459;-40
2021/06/02 07:23:25;;;;;;;5.72;0.60;;;;;;;20.56;46.60;101145.53;5071570;28;20028;-40
2021/06/02 07:25:51;;;;;;;0.00;0.00;;;;;;;20.53;46.49;101139.41;5072227;28;20036;-40
2021/06/02 07:28:20;;;;;;;0.03;0.03;;;;;;;20.66;46.44;101144.44;5054542;28;20114;-40
2021/06/02 07:30:46;;;;;;;0.00;0.00;;;;;;;20.58;46.76;101143.72;5053084;28;20611;-40
2021/06/02 07:33:12;;;;;;;0.00;0.00;;;;;;;20.60;46.63;101141.88;5069268;28;20122;-39
2021/06/02 07:35:38;;;;;;;0.10;0.10;;;;;;;20.66;46.61;101136.50;5075018;28;20367;-40
2021/06/02 07:38:04;;;;;;;0.00;0.00;;;;;;;20.60;46.43;101135.72;5074277;28;20024;-40
2021/06/02 07:40:31;;;;;;;0.13;0.13;;;;;;;20.56;46.60;101131.41;5072308;28;20025;-40
2021/06/02 07:42:57;;;;;;;0.00;0.00;;;;;;;20.56;46.49;101139.34;5069339;28;20027;-40
2021/06/02 07:45:23;;;;;;;0.00;0.00;;;;;;;20.55;46.52;101142.88;5068112;28;20028;-40
2021/06/02 07:47:49;;;;;;;0.00;0.00;;;;;;;20.53;46.53;101142.94;5064937;28;20028;-39
2021/06/02 07:50:15;;;;;;;0.20;0.20;;;;;;;20.46;46.67;101138.59;5066775;28;20020;-39
2021/06/02 07:52:41;;;;;;;0.00;0.00;;;;;;;20.54;46.67;101157.94;5067051;28;20036;-40
2021/06/02 07:55:08;;;;;;;0.00;0.00;;;;;;;20.56;46.42;101144.66;5068612;28;20032;-39
2021/06/02 07:57:34;;;;;;;0.00;0.00;;;;;;;20.53;46.48;101147.38;5067581;28;20039;-39
2021/06/02 08:00:00;;;;;;;0.17;0.17;;;;;;;20.55;46.56;101146.41;5070778;28;20458;-39
2021/06/02 08:02:27;;;;;;;0.00;0.00;;;;;;;20.45;46.67;101150.13;5069286;28;20017;-40
2021/06/02 08:04:53;;;;;;;0.00;0.00;;;;;;;20.52;46.47;101141.19;5071122;28;20036;-39
2021/06/02 08:07:19;;;;;;;0.67;0.27;;;;;;;20.52;46.48;101135.00;5069255;28;20020;-40
2021/06/02 08:09:46;;;;;;;0.00;0.00;;;;;;;20.46;46.57;101136.84;5060824;28;20051;-38
2021/06/02 08:12:12;;;;;;;0.00;0.00;;;;;;;20.41;46.73;101140.47;5067650;28;20058;-39
2021/06/02 08:14:39;;;;;;;0.00;0.00;;;;;;;20.40;46.60;101142.25;5073136;28;20028;-38
2021/06/02 08:17:06;;;;;;;0.10;0.10;;;;;;;20.38;46.69;101137.88;5063202;28;20481;-40
2021/06/02 08:19:32;;;;;;;0.10;0.05;;;;;;;20.48;46.39;101135.97;5062198;28;20040;-40
2021/06/02 08:21:58;;;;;;;0.00;0.00;;;;;;;20.43;46.55;101134.22;5069799;28;20064;-39
2021/06/02 08:24:24;;;;;;;3.63;0.13;;;;;;;20.49;46.27;101138.59;5069555;28;20272;-36
2021/06/02 08:26:50;;;;;;;0.00;0.00;;;;;;;20.42;46.61;101135.16;5074330;28;20032;-38
2021/06/02 08:29:16;;;;;;;0.00;0.00;;;;;;;20.39;46.75;101131.66;5066676;28;20719;-40
2021/06/02 08:31:43;;;;;;;0.00;0.00;;;;;;;20.41;46.41;101135.16;5068174;28;20040;-38
2021/06/02 08:34:09;;;;;;;0.00;0.00;;;;;;;20.35;46.63;101135.28;5069466;28;20522;-38
2021/06/02 08:36:35;;;;;;;0.00;0.00;;;;;;;20.40;46.37;101131.63;5073120;28;20067;-39
2021/06/02 08:39:05;;;;;;;0.30;0.10;;;;;;;20.42;46.37;101131.63;5074175;28;20130;-39
2021/06/02 08:41:31;;;;;;;0.85;0.22;;;;;;;20.35;46.58;101125.53;5078074;28;20081;-39
2021/06/02 08:43:57;;;;;;;0.30;0.27;;;;;;;20.33;46.75;101132.66;5074330;28;20393;-39
2021/06/02 08:46:23;;;;;;;0.00;0.00;;;;;;;20.44;46.53;101129.81;5068604;28;20454;-38
2021/06/02 08:48:49;;;;;;;0.00;0.00;;;;;;;20.35;46.77;101122.00;5069703;28;20447;-39
2021/06/02 08:51:18;;;;;;;0.10;0.10;;;;;;;20.29;46.92;101124.78;5075672;28;20355;-40
2021/06/02 08:53:48;;;;;;;0.00;0.00;;;;;;;20.31;46.49;101117.66;5075415;28;20036;-39
2021/06/02 08:56:15;;;;;;;0.00;0.00;;;;;;;20.34;46.62;101118.47;5067988;28;20024;-39
2021/06/02 08:58:41;;;;;;;0.30;0.10;;;;;;;20.24;46.53;101114.25;5087099;28;20655;-37
2021/06/02 09:01:07;;;;;;;0.00;0.00;;;;;;;20.21;46.59;101106.34;5072867;28;20462;-39
2021/06/02 09:03:34;;;;;;;0.00;0.00;;;;;;;20.16;46.79;101106.41;5073118;28;20020;-40
2021/06/02 09:06:06;;;;;;;0.10;0.10;;;;;;;20.19;46.48;101111.69;5075842;28;20042;-37
2021/06/02 09:08:33;;;;;;;0.00;0.00;;;;;;;20.15;46.84;101115.28;5072365;28;20284;-38
2021/06/02 09:11:12;;;;;;;0.03;0.03;;;;;;;20.24;46.56;101111.59;5071952;28;20028;-39
2021/06/02 09:13:38;;;;;;;0.00;0.00;;;;;;;20.26;46.44;101114.22;5074946;28;20028;-39
2021/06/02 09:16:23;;;;;;;0.00;0.00;;;;;;;20.23;46.59;101112.50;5074603;28;20034;-40
2021/06/02 09:18:57;;;;;;;0.00;0.00;;;;;;;20.25;46.45;101112.47;5071921;28;20123;-37
2021/06/02 09:21:23;;;;;;;0.00;0.00;;;;;;;20.23;46.20;101101.91;5072814;28;20119;-38
2021/06/02 09:23:51;;;;;;;0.00;0.00;;;;;;;20.16;46.61;101117.03;5071320;28;20074;-39
2021/06/02 09:26:26;;;;;;;0.00;0.00;;;;;;;20.16;46.53;101125.00;5076131;28;20054;-40
2021/06/02 09:28:53;;;;;;;0.03;0.03;;;;;;;20.16;46.55;101121.47;5070040;28;20032;-38
2021/06/02 09:31:30;;;;;;;;;;;;;;;20.11;46.65;101115.38;5068075;28;20066;-37
2021/06/02 09:34:19;;;;;;;0.00;0.00;;;;;;;20.06;46.46;101111.94;5071982;28;19916;-40
2021/06/02 09:36:51;;;;;;;0.00;0.00;;;;;;;20.03;46.68;101115.50;5071594;28;20047;-39
2021/06/02 09:39:18;;;;;;;0.00;0.00;;;;;;;20.16;46.55;101103.78;5072175;28;20446;-38
2021/06/02 09:42:03;;;;;;;0.00;0.00;;;;;;;20.09;46.52;101099.50;5073507;28;20488;-39
2021/06/02 09:44:29;;;;;;;0.00;0.00;;;;;;;20.14;46.43;101102.94;5074845;28;20040;-38
2021/06/02 09:47:07;;;;;;;0.10;0.10;;;;;;;20.11;46.49;101102.97;5070627;28;20032;-39
2021/06/02 09:49:59;;;;;;;0.00;0.00;;;;;;;20.15;46.26;101103.81;5076981;28;20362;-39
2021/06/02 09:52:48;;;;;;;0.10;0.05;;;;;;;20.10;46.41;101101.25;5069214;28;20067;-40
2021/06/02 09:55:23;;;;;;;0.10;0.00;;;;;;;20.06;46.66;101104.84;5073402;28;20037;-39
2021/06/02 09:58:02;;;;;;;0.00;0.00;;;;;;;20.02;46.74;101103.13;5067572;28;20056;-38
2021/06/02 10:00:28;;;;;;;0.20;0.20;;;;;;;20.02;46.64;101102.28;5071114;28;20068;-38
2021/06/02 10:03:05;;;;;;;0.38;0.28;;;;;;;20.15;46.43;101103.81;5070849;28;20435;-39
2021/06/02 10:05:50;;;;;;;0.00;0.00;;;;;;;20.10;46.52;101093.28;5072128;28;20036;-39
2021/06/02 10:08:35;;;;;;;0.13;0.10;;;;;;;20.11;46.28;101088.84;5073685;28;20064;-39
2021/06/02 10:11:12;;;;;;;0.00;0.00;;;;;;;20.07;46.49;101093.31;5071576;28;20447;-40
2021/06/02 10:13:39;;;;;;;0.00;0.00;;;;;;;19.98;46.70;101097.91;5070760;28;20032;-39
2021/06/02 10:16:05;;;;;;;0.00;0.00;;;;;;;20.07;46.29;101116.31;5077080;28;20024;-39
2021/06/02 10:18:33;;;;;;;0.00;0.00;;;;;;;20.08;46.40;101116.31;5072696;28;20024;-36
2021/06/02 10:21:13;;;;;;;0.00;0.00;;;;;;;19.97;46.50;101110.31;5072807;28;20277;-38
2021/06/02 10:23:45;;;;;;;0.00;0.00;;;;;;;19.98;46.47;101111.16;5071508;28;20024;-39
2021/06/02 10:26:13;;;;;;;0.08;0.08;;;;;;;19.99;46.60;101108.53;5070472;28;20500;-38
2021/06/02 10:28:40;;;;;;;0.00;0.00;;;;;;;19.89;46.75;101109.53;5075641;28;20459;-40
2021/06/02 10:31:07;;;;;;;0.75;0.25;;;;;;;19.95;46.54;101110.34;5073921;28;20055;-38
2021/06/02 10:33:33;;;;;;;0.10;0.10;;;;;;;19.92;46.37;101097.13;5072707;28;20064;-39
2021/06/02 10:36:01;;;;;;;0.00;0.00;;;;;;;20.05;46.15;101108.41;5068315;28;20028;-38
2021/06/02 10:38:39;;;;;;;0.08;0.08;;;;;;;19.87;46.77;101108.72;5073176;28;20050;-39
2021/06/02 10:41:06;;;;;;;1.20;0.20;;;;;;;19.98;46.46;101122.66;5058432;28;20107;-39
2021/06/02 10:43:34;;;;;;;0.00;0.00;;;;;;;19.98;46.14;101121.78;5054470;28;20050;-38
2021/06/02 10:46:03;;;;;;;0.08;0.08;;;;;;;19.88;46.55;101119.28;5070899;28;20052;-40
2021/06/02 10:48:39;;;;;;;0.00;0.00;;;;;;;19.87;46.65;101120.19;5065618;28;20028;-39
2021/06/02 10:51:05;;;;;;;0.55;0.32;;;;;;;19.95;46.68;101125.38;5073856;28;21234;-39
2021/06/02 10:53:32;;;;;;;0.00;0.00;;;;;;;19.87;46.51;101124.63;5069904;28;20016;-39
2021/06/02 10:56:00;;;;;;;0.00;0.00;;;;;;;19.95;46.25;101128.03;5070870;28;20052;-39
2021/06/02 10:58:44;;;;;;;0.57;0.10;;;;;;;19.91;46.43;101124.53;5072853;28;20025;-39
2021/06/02 11:01:16;;;;;;;0.03;0.03;;;;;;;19.91;46.53;101132.50;5062298;28;20057;-39
2021/06/02 11:03:44;;;;;;;0.00;0.00;;;;;;;19.88;46.51;101136.97;5066835;28;20024;-39
2021/06/02 11:06:16;;;;;;;0.00;0.00;;;;;;;19.73;46.72;101119.53;5070163;28;20024;-39
2021/06/02 11:08:48;;;;;;;0.00;0.00;;;;;;;19.80;46.64;101141.53;5069579;28;20028;-39
2021/06/02 11:11:26;;;;;;;0.28;0.13;;;;;;;19.86;46.58;101139.66;5070287;28;20090;-39
2021/06/02 11:14:18;;;;;;;0.10;0.00;;;;;;;19.82;46.49;101137.94;5072539;28;20036;-39
2021/06/02 11:16:54;;;;;;;2.08;1.25;;;;;;;19.81;46.56;101137.97;5071032;28;20024;-38
2021/06/02 11:19:23;;;;;;;0.00;0.00;;;;;;;19.76;46.67;101142.47;5071715;28;20455;-38
2021/06/02 11:21:55;;;;;;;0.30;0.20;;;;;;;19.75;46.74;101146.00;5072114;28;20032;-40
2021/06/02 11:24:34;;;;;;;0.00;0.00;;;;;;;19.77;46.66;101145.09;5070256;28;20029;-40
2021/06/02 11:27:15;;;;;;;0.05;0.05;;;;;;;19.76;46.57;101142.47;5073078;28;20037;-38
2021/06/02 11:29:50;;;;;;;0.10;0.10;;;;;;;19.80;46.37;101139.75;5069294;28;20062;-38
2021/06/02 11:32:26;;;;;;;0.00;0.00;;;;;;;19.65;46.84;101143.53;5071484;28;20040;-40
2021/06/02 11:34:55;;;;;;;0.00;0.00;;;;;;;19.73;46.60;101145.16;5067893;28;20463;-40
2021/06/02 11:37:24;;;;;;;0.28;0.28;;;;;;;19.71;46.63;101149.63;5073768;28;20040;-39
2021/06/02 11:39:53;;;;;;;0.00;0.00;;;;;;;19.75;46.60;101141.63;5072821;28;20036;-39
2021/06/02 11:42:35;;;;;;;0.00;0.00;;;;;;;19.70;46.68;101143.44;5069735;28;20024;-39
2021/06/02 11:45:06;;;;;;;0.00;0.00;;;;;;;19.81;46.37;101136.19;5067173;28;20596;-39
2021/06/02 11:47:33;;;;;;;0.00;0.00;;;;;;;19.69;46.68;101136.38;5071649;28;20047;-38
2021/06/02 11:50:07;;;;;;;0.55;0.45;;;;;;;19.74;46.56;101141.63;5072148;28;20055;-39
2021/06/02 11:52:33;;;;;;;0.00;0.00;;;;;;;19.72;46.62;101135.47;5070639;28;20051;-39
2021/06/02 11:55:01;;;;;;;0.00;0.00;;;;;;;19.74;46.47;101138.97;5070656;28;20034;-39
2021/06/02 11:57:31;;;;;;;0.00;0.00;;;;;;;19.61;46.68;101144.47;5064259;28;20092;-39
2021/06/02 11:59:58;;;;;;;0.08;0.08;;;;;;;19.64;46.71;101144.41;5064739;28;21278;-39
2021/06/02 12:02:24;;;;;;;;;;;;;;;19.58;46.76;101144.47;5071695;28;20028;-38
2021/06/02 12:04:50;;;;;;;0.32;0.25;;;;;;;19.63;46.71;101142.66;5075054;28;19908;-39
2021/06/02 12:07:34;;;;;;;0.00;0.00;;;;;;;19.59;46.82;101145.34;5071976;28;20330;-39
2021/06/02 12:10:00;;;;;;;0.00;0.00;;;;;;;19.67;46.77;101143.50;5073154;28;20032;-39
2021/06/02 12:12:26;;;;;;;0.10;0.10;;;;;;;19.60;46.59;101148.00;5070430;28;20462;-38
2021/06/02 12:14:53;;;;;;;0.00;0.00;;;;;;;19.63;46.74;101147.09;5051385;28;20028;-40